Time;durP1;ratioP1;P1;durP2;ratioP2;P2;SDS_P1;SDS_P2;PMS_P1;PMS_P2;Temp;Humidity;BMP_temperature;BMP_pressure;BME280_temperature;BME280_humidity;BME280_pressure;Samples;Min_cycle;Max_cycle;Signal;HPM_P1;HPM_P2
2021/07/29 00:01:31;;;;;;;6.90;3.47;;;;;;;15.10;84.35;100457.75;5033070;28;20045;-79
2021/07/29 00:03:56;;;;;;;5.67;3.13;;;;;;;15.09;84.07;100456.06;5049120;28;20123;-79
2021/07/29 00:06:21;;;;;;;6.27;3.73;;;;;;;15.08;84.15;100461.66;5049442;28;20115;-80
2021/07/29 00:08:47;;;;;;;8.93;3.60;;;;;;;15.05;84.83;100457.50;5048924;28;20123;-79
2021/07/29 00:11:18;;;;;;;5.97;3.73;;;;;;;15.07;84.86;100446.56;5052529;28;20021;-78
2021/07/29 00:13:43;;;;;;;9.93;4.32;;;;;;;15.04;85.28;100447.78;5036881;28;20343;-79
2021/07/29 00:16:08;;;;;;;5.37;4.20;;;;;;;14.95;85.84;100440.91;5054158;28;20121;-80
2021/07/29 00:21:18;;;;;;;6.88;4.50;;;;;;;14.95;86.94;100430.16;5053726;28;20044;-79
2021/07/29 00:23:47;;;;;;;8.90;4.00;;;;;;;14.98;86.08;100438.66;5052803;28;20127;-80
2021/07/29 00:26:12;;;;;;;6.32;3.47;;;;;;;15.00;86.13;100438.44;5036010;28;20025;-79
2021/07/29 00:28:37;;;;;;;7.63;4.13;;;;;;;14.95;86.14;100441.72;5036200;28;20043;-79
2021/07/29 00:31:03;;;;;;;6.60;3.70;;;;;;;14.94;85.60;100432.03;5036526;28;20029;-81
2021/07/29 00:33:28;;;;;;;6.43;3.73;;;;;;;15.02;85.65;100436.38;5036671;28;20362;-79
2021/07/29 00:35:53;;;;;;;7.63;4.53;;;;;;;15.09;85.02;100436.44;5036228;28;20069;-80
2021/07/29 00:38:19;;;;;;;8.17;4.03;;;;;;;14.98;85.80;100432.44;5036689;28;20090;-79
2021/07/29 00:40:44;;;;;;;8.93;3.93;;;;;;;15.04;84.51;100431.66;5036329;28;20252;-80
2021/07/29 00:43:14;;;;;;;8.27;4.47;;;;;;;14.91;85.30;100427.06;5054733;28;20025;-82
2021/07/29 00:45:39;;;;;;;8.95;3.53;;;;;;;14.89;84.83;100421.03;5053478;28;20040;-83
2021/07/29 00:48:05;;;;;;;8.40;4.03;;;;;;;14.89;84.48;100414.81;5053763;28;20029;-82
2021/07/29 00:50:31;;;;;;;17.20;3.63;;;;;;;14.77;84.62;100409.16;5054476;28;20039;-80
2021/07/29 00:52:56;;;;;;;10.13;3.80;;;;;;;14.91;83.70;100418.97;5053123;28;20121;-80
2021/07/29 00:55:22;;;;;;;10.02;4.20;;;;;;;14.81;83.98;100410.44;5054606;28;20028;-81
2021/07/29 00:57:47;;;;;;;13.17;4.50;;;;;;;14.84;84.29;100414.59;5053428;28;20041;-81
2021/07/29 01:00:13;;;;;;;6.20;4.13;;;;;;;14.77;83.79;100393.03;5053196;28;20136;-79
2021/07/29 01:02:39;;;;;;;13.73;3.35;;;;;;;14.85;84.04;100403.66;5053128;28;20324;-78
2021/07/29 01:05:08;;;;;;;10.23;4.18;;;;;;;14.84;84.36;100404.66;5053754;28;20037;-79
2021/07/29 01:07:33;;;;;;;12.07;3.50;;;;;;;14.80;84.18;100407.94;5053575;28;20025;-81
2021/07/29 01:09:59;;;;;;;4.73;3.20;;;;;;;14.83;83.82;100410.25;5054260;28;20522;-82
2021/07/29 01:12:24;;;;;;;5.37;3.03;;;;;;;14.80;83.89;100403.41;5052725;28;20036;-80
2021/07/29 01:14:49;;;;;;;6.00;3.73;;;;;;;14.70;84.12;100390.34;5036139;28;20607;-80
2021/07/29 01:17:15;;;;;;;11.43;4.17;;;;;;;14.75;84.81;100403.19;5053314;28;20035;-83
2021/07/29 01:19:40;;;;;;;6.37;3.47;;;;;;;14.63;84.90;100396.69;5053762;28;20124;-80
2021/07/29 01:22:06;;;;;;;8.33;3.40;;;;;;;14.74;83.67;100398.81;5051933;28;20052;-80
2021/07/29 01:24:31;;;;;;;7.47;4.00;;;;;;;14.76;83.69;100394.91;5053622;28;20029;-81
2021/07/29 01:26:56;;;;;;;4.13;3.73;;;;;;;14.74;83.78;100386.22;5052390;28;20472;-80
2021/07/29 01:29:22;;;;;;;7.37;3.97;;;;;;;14.80;83.18;100386.44;5053502;28;20024;-80
2021/07/29 01:31:48;;;;;;;9.48;3.53;;;;;;;14.77;83.45;100393.91;5053378;28;20666;-80
2021/07/29 01:34:14;;;;;;;11.10;4.03;;;;;;;14.69;83.76;100383.28;5052078;28;20037;-80
2021/07/29 01:36:39;;;;;;;11.63;4.13;;;;;;;14.65;83.95;100378.50;5050053;28;20071;-81
2021/07/29 01:39:05;;;;;;;7.50;3.90;;;;;;;14.75;82.96;100377.13;5052238;28;20036;-79
2021/07/29 01:41:30;;;;;;;9.43;4.00;;;;;;;14.57;83.80;100366.09;5035612;28;20033;-80
2021/07/29 01:43:56;;;;;;;10.37;4.60;;;;;;;14.52;83.80;100369.31;5053213;28;20052;-80
2021/07/29 01:46:21;;;;;;;9.37;4.50;;;;;;;14.50;83.56;100367.88;5035473;28;20024;-80
2021/07/29 01:48:46;;;;;;;9.57;4.03;;;;;;;14.51;83.33;100358.75;5052886;28;20470;-80
2021/07/29 01:51:12;;;;;;;13.83;4.17;;;;;;;14.58;83.23;100362.34;5051241;28;20032;-80
2021/07/29 01:53:37;;;;;;;5.97;3.80;;;;;;;14.51;82.89;100350.72;5052835;28;20057;-80
2021/07/29 01:56:07;;;;;;;6.63;4.37;;;;;;;14.49;83.67;100366.19;5052225;28;20670;-81
2021/07/29 01:58:32;;;;;;;11.77;5.50;;;;;;;14.42;83.67;100357.25;5052499;28;20523;-80
2021/07/29 02:00:57;;;;;;;8.20;4.73;;;;;;;14.33;84.23;100348.56;5035270;28;20025;-79
2021/07/29 02:03:23;;;;;;;10.10;4.60;;;;;;;14.31;84.01;100351.44;5051829;28;20044;-79
2021/07/29 02:05:48;;;;;;;10.40;4.67;;;;;;;14.28;84.69;100362.56;5052358;28;20531;-79
2021/07/29 02:08:13;;;;;;;8.60;4.13;;;;;;;14.27;85.01;100360.88;5051689;28;20053;-80
2021/07/29 02:10:39;;;;;;;11.23;4.87;;;;;;;14.20;85.06;100357.34;5052630;28;20151;-79
2021/07/29 02:13:04;;;;;;;6.60;3.73;;;;;;;14.12;85.53;100349.44;5034827;28;20403;-80
2021/07/29 02:15:30;;;;;;;10.47;4.33;;;;;;;14.03;85.86;100334.50;5050780;28;21095;-80
2021/07/29 02:18:00;;;;;;;8.25;4.40;;;;;;;14.07;85.52;100349.16;5050845;28;20609;-80
2021/07/29 02:20:27;;;;;;;10.55;5.05;;;;;;;14.08;86.01;100358.91;5051093;28;20045;-79
2021/07/29 02:22:53;;;;;;;9.38;4.40;;;;;;;14.05;85.98;100359.31;5035158;28;20094;-80
2021/07/29 02:25:19;;;;;;;12.65;5.07;;;;;;;14.06;85.82;100364.47;5034204;28;20036;-80
2021/07/29 02:27:44;;;;;;;10.88;4.80;;;;;;;14.09;85.63;100352.50;5034378;28;20136;-79
2021/07/29 02:30:11;;;;;;;12.10;5.30;;;;;;;14.06;85.87;100350.22;5051041;28;20031;-80
2021/07/29 02:32:37;;;;;;;6.30;4.25;;;;;;;14.01;85.99;100353.47;5050960;28;20037;-79
2021/07/29 02:35:03;;;;;;;;;;;;;;;13.90;86.37;100343.25;5051361;28;20040;-80
2021/07/29 02:37:28;;;;;;;;;;;;;;;13.87;86.74;100339.13;5052178;28;19965;-80
2021/07/29 02:39:53;;;;;;;12.40;5.17;;;;;;;13.78;87.40;100334.91;5051031;28;19920;-79
2021/07/29 02:42:18;;;;;;;7.60;4.47;;;;;;;13.62;87.79;100325.28;5050873;28;20033;-80
2021/07/29 02:44:45;;;;;;;12.80;5.67;;;;;;;13.76;87.63;100336.97;5050700;28;20025;-79
2021/07/29 02:47:10;;;;;;;9.23;5.55;;;;;;;13.71;87.44;100339.41;5050556;28;20063;-79
2021/07/29 02:49:36;;;;;;;9.93;5.07;;;;;;;13.71;87.28;100334.84;5032481;28;20480;-79
2021/07/29 02:52:02;;;;;;;11.68;4.47;;;;;;;13.68;87.21;100318.31;5048576;28;20044;-80
2021/07/29 02:54:27;;;;;;;12.95;5.75;;;;;;;13.81;87.00;100331.00;5049567;28;20124;-80
2021/07/29 02:56:53;;;;;;;10.20;5.47;;;;;;;13.73;87.69;100338.16;5050894;28;20112;-80
2021/07/29 02:59:18;;;;;;;9.33;5.53;;;;;;;13.65;87.95;100319.53;5033673;28;20029;-80
2021/07/29 03:01:43;;;;;;;8.93;5.33;;;;;;;13.71;87.50;100334.03;5050719;28;20029;-80
2021/07/29 03:04:09;;;;;;;13.00;5.00;;;;;;;13.75;87.12;100334.50;5032848;28;20437;-80
2021/07/29 03:06:34;;;;;;;6.47;3.73;;;;;;;13.73;87.45;100340.84;5032434;28;20396;-80
2021/07/29 03:09:00;;;;;;;10.47;5.23;;;;;;;13.74;87.05;100328.28;5050742;28;20036;-80
2021/07/29 03:11:26;;;;;;;16.07;5.60;;;;;;;13.73;87.25;100322.06;5050535;28;20477;-80
2021/07/29 03:13:51;;;;;;;8.68;4.13;;;;;;;13.77;86.82;100321.72;5049978;28;20043;-80
2021/07/29 03:16:17;;;;;;;11.20;4.73;;;;;;;13.80;86.41;100315.94;5050934;28;20128;-81
2021/07/29 03:18:42;;;;;;;11.27;4.80;;;;;;;13.84;86.33;100310.00;5050171;28;20037;-80
2021/07/29 03:21:08;;;;;;;9.50;4.03;;;;;;;13.87;85.77;100320.34;5033567;28;20075;-79
2021/07/29 03:23:37;;;;;;;13.25;4.50;;;;;;;13.89;85.40;100312.09;5033377;28;20283;-80
2021/07/29 03:26:03;;;;;;;9.80;4.28;;;;;;;13.90;85.78;100311.06;5033073;28;20040;-79
2021/07/29 03:28:29;;;;;;;10.13;3.60;;;;;;;13.81;86.27;100306.88;5033409;28;20112;-81
2021/07/29 03:30:54;;;;;;;9.13;4.50;;;;;;;13.63;86.64;100294.75;5033013;28;20473;-80
2021/07/29 03:33:20;;;;;;;9.47;4.20;;;;;;;13.72;87.04;100311.56;5049559;28;20037;-79
2021/07/29 03:35:46;;;;;;;10.15;4.80;;;;;;;13.72;86.87;100308.88;5049730;28;20032;-81
2021/07/29 03:38:12;;;;;;;8.77;4.57;;;;;;;13.75;86.40;100311.16;5051334;28;20098;-80
2021/07/29 03:40:38;;;;;;;7.32;4.32;;;;;;;13.70;86.74;100306.38;5050168;28;20392;-80
2021/07/29 03:43:06;;;;;;;12.13;4.50;;;;;;;13.64;87.11;100311.69;5051072;28;20481;-80
2021/07/29 03:45:33;;;;;;;10.27;4.43;;;;;;;13.73;86.66;100318.56;5050186;28;20056;-81
2021/07/29 03:47:59;;;;;;;10.90;4.40;;;;;;;13.62;86.55;100303.00;5049534;28;20039;-80
2021/07/29 03:50:25;;;;;;;10.18;4.85;;;;;;;13.72;86.35;100314.25;5050795;28;20020;-80
2021/07/29 03:52:50;;;;;;;12.25;6.43;;;;;;;13.70;86.38;100306.38;5049664;28;20032;-80
2021/07/29 03:55:16;;;;;;;8.70;4.80;;;;;;;13.70;85.92;100297.50;5050049;28;20111;-80
2021/07/29 03:57:41;;;;;;;8.65;3.75;;;;;;;13.73;85.92;100307.84;5033419;28;20373;-80
2021/07/29 04:00:08;;;;;;;8.17;4.30;;;;;;;13.78;85.30;100308.09;5033067;28;20075;-79
2021/07/29 04:02:34;;;;;;;12.75;4.03;;;;;;;13.90;84.43;100301.16;5050106;28;20044;-81
2021/07/29 04:05:00;;;;;;;7.90;4.05;;;;;;;13.97;84.13;100305.75;5049298;28;20099;-81
2021/07/29 04:07:26;;;;;;;8.07;3.25;;;;;;;13.98;83.48;100292.16;5033643;28;20622;-81
2021/07/29 04:09:52;;;;;;;8.93;4.33;;;;;;;14.08;82.60;100289.13;5051125;28;20044;-80
2021/07/29 04:12:17;;;;;;;6.63;3.85;;;;;;;14.11;81.83;100291.41;5050317;28;20028;-81
2021/07/29 04:14:43;;;;;;;8.18;3.78;;;;;;;14.21;82.04;100294.56;5049611;28;20068;-80
2021/07/29 04:17:09;;;;;;;8.45;3.40;;;;;;;14.22;82.36;100298.09;5050192;28;20049;-81
2021/07/29 04:19:35;;;;;;;7.40;3.90;;;;;;;14.27;82.25;100290.25;5047458;28;20037;-82
2021/07/29 04:22:04;;;;;;;8.68;4.05;;;;;;;14.40;81.30;100305.59;5048889;28;20295;-81
2021/07/29 04:24:30;;;;;;;3.97;3.25;;;;;;;14.44;81.35;100296.94;5033037;28;20121;-80
2021/07/29 04:26:56;;;;;;;7.70;3.78;;;;;;;14.56;81.00;100310.69;5051011;28;20032;-80
2021/07/29 04:29:23;;;;;;;4.10;3.10;;;;;;;14.64;80.40;100301.66;5032998;28;20056;-79
2021/07/29 04:31:48;;;;;;;6.13;3.33;;;;;;;14.72;79.76;100304.16;5049671;28;20044;-81
2021/07/29 04:34:13;;;;;;;5.90;3.10;;;;;;;14.75;79.44;100311.81;5049512;28;20029;-80
2021/07/29 04:36:40;;;;;;;6.47;3.57;;;;;;;14.85;79.39;100316.81;5048988;28;20037;-80
2021/07/29 04:39:06;;;;;;;;;;;;;;;14.94;78.74;100310.25;5033316;28;20048;-81
2021/07/29 04:41:31;;;;;;;;;;;;;;;15.04;77.95;100317.91;5049617;28;19916;-80
2021/07/29 04:43:57;;;;;;;9.48;3.72;;;;;;;15.01;78.67;100308.41;5049131;28;20345;-80
2021/07/29 04:46:22;;;;;;;5.43;3.37;;;;;;;14.95;78.07;100303.81;5049656;28;20029;-81
2021/07/29 04:48:47;;;;;;;6.50;3.37;;;;;;;15.02;78.33;100306.53;5049959;28;20025;-79
2021/07/29 04:51:13;;;;;;;5.77;3.10;;;;;;;15.07;78.03;100304.88;5049067;28;20057;-81
2021/07/29 04:53:38;;;;;;;3.33;3.03;;;;;;;15.11;78.19;100314.22;5032726;28;20037;-79
2021/07/29 04:56:04;;;;;;;10.73;3.53;;;;;;;15.16;78.44;100303.66;5047146;28;20513;-81
2021/07/29 04:58:29;;;;;;;7.22;3.30;;;;;;;15.20;78.46;100301.41;5051397;28;20045;-79
2021/07/29 05:00:55;;;;;;;3.73;2.97;;;;;;;15.23;78.07;100295.63;5053542;28;20705;-80
2021/07/29 05:03:20;;;;;;;4.20;2.80;;;;;;;15.25;77.97;100292.75;5052302;28;20098;-80
2021/07/29 05:05:45;;;;;;;8.50;3.60;;;;;;;15.33;77.56;100306.78;5052266;28;20472;-79
2021/07/29 05:08:11;;;;;;;6.60;3.43;;;;;;;15.49;77.16;100304.75;5053348;28;20033;-80
2021/07/29 05:10:36;;;;;;;5.87;3.03;;;;;;;15.38;76.79;100298.13;5052116;28;20032;-79
2021/07/29 05:13:01;;;;;;;3.90;2.23;;;;;;;15.52;76.47;100307.88;5051842;28;20069;-80
2021/07/29 05:15:27;;;;;;;6.57;3.87;;;;;;;15.56;75.17;100290.28;5051325;28;20068;-82
2021/07/29 05:17:55;;;;;;;13.40;3.20;;;;;;;15.95;74.97;100294.03;5051914;28;20039;-79
2021/07/29 05:20:21;;;;;;;6.45;3.40;;;;;;;15.89;73.99;100289.47;5051119;28;20099;-80
2021/07/29 05:22:47;;;;;;;4.90;2.97;;;;;;;15.76;74.69;100290.31;5034935;28;20103;-79
2021/07/29 05:25:12;;;;;;;6.60;2.83;;;;;;;15.75;75.02;100306.66;5034747;28;20037;-79
2021/07/29 05:27:38;;;;;;;5.10;3.40;;;;;;;15.83;74.56;100287.63;5034557;28;20283;-79
2021/07/29 05:30:05;;;;;;;7.00;3.17;;;;;;;16.78;72.11;100293.38;5050450;28;20289;-79
2021/07/29 05:32:30;;;;;;;5.45;2.85;;;;;;;16.72;70.45;100291.56;5050909;28;20521;-80
2021/07/29 05:34:55;;;;;;;10.80;3.63;;;;;;;16.98;69.13;100266.34;5049970;28;20032;-81
2021/07/29 05:37:21;;;;;;;6.37;3.00;;;;;;;17.22;69.48;100270.16;5049831;28;20053;-79
2021/07/29 05:39:46;;;;;;;5.33;2.90;;;;;;;17.92;66.19;100266.50;5051014;28;20032;-78
2021/07/29 05:42:11;;;;;;;5.47;2.57;;;;;;;17.50;66.68;100248.16;5033360;28;20037;-78
2021/07/29 05:44:37;;;;;;;8.70;3.23;;;;;;;18.38;65.70;100267.91;5050353;28;20440;-79
2021/07/29 05:47:03;;;;;;;7.53;3.45;;;;;;;18.30;64.27;100266.31;5051068;28;20545;-79
2021/07/29 05:49:28;;;;;;;6.65;2.65;;;;;;;17.39;67.52;100264.22;5050494;28;20104;-78
2021/07/29 05:51:54;;;;;;;4.13;2.93;;;;;;;17.34;68.44;100256.78;5050449;28;20037;-79
2021/07/29 05:54:19;;;;;;;7.17;3.30;;;;;;;16.76;69.50;100279.28;5033042;28;20083;-78
2021/07/29 05:56:46;;;;;;;4.87;2.37;;;;;;;16.53;70.66;100268.19;5049805;28;20044;-79
2021/07/29 05:59:11;;;;;;;7.63;2.60;;;;;;;16.41;70.13;100276.97;5051033;28;20468;-78
2021/07/29 06:01:37;;;;;;;5.27;2.93;;;;;;;16.39;70.72;100265.56;5050398;28;20033;-78
2021/07/29 06:04:02;;;;;;;8.77;2.80;;;;;;;16.54;70.42;100267.16;5050123;28;20104;-79
2021/07/29 06:06:27;;;;;;;8.27;2.67;;;;;;;16.21;71.50;100263.53;5034294;28;20469;-80
2021/07/29 06:08:57;;;;;;;4.77;2.83;;;;;;;16.67;70.25;100276.03;5052331;28;20039;-79
2021/07/29 06:11:23;;;;;;;6.10;2.65;;;;;;;16.79;68.08;100262.72;5052504;28;20040;-78
2021/07/29 06:13:48;;;;;;;6.77;2.70;;;;;;;17.02;68.12;100259.50;5050865;28;20033;-79
2021/07/29 06:16:14;;;;;;;7.27;2.87;;;;;;;17.29;66.68;100268.22;5050523;28;20032;-79
2021/07/29 06:18:47;;;;;;;5.53;2.67;;;;;;;16.74;68.34;100265.22;5051832;28;20064;-78
2021/07/29 06:21:12;;;;;;;4.65;2.50;;;;;;;16.52;68.08;100266.53;5033633;28;20355;-79
2021/07/29 06:23:37;;;;;;;7.53;2.77;;;;;;;16.36;69.41;100271.34;5034092;28;20025;-78
2021/07/29 06:26:03;;;;;;;4.17;2.73;;;;;;;16.37;68.61;100267.63;5033161;28;20564;-80
2021/07/29 06:28:32;;;;;;;8.53;2.90;;;;;;;16.15;68.24;100267.06;5034107;28;20031;-81
2021/07/29 06:30:57;;;;;;;7.68;2.50;;;;;;;16.06;69.66;100275.56;5050628;28;20056;-80
2021/07/29 06:33:22;;;;;;;3.63;2.87;;;;;;;15.98;70.60;100285.53;5050200;28;20493;-80
2021/07/29 06:35:48;;;;;;;11.73;3.30;;;;;;;15.85;71.13;100288.25;5050668;28;20454;-80
2021/07/29 06:38:13;;;;;;;5.10;3.47;;;;;;;16.06;71.11;100287.19;5032463;28;20362;-80
2021/07/29 06:40:38;;;;;;;5.10;2.27;;;;;;;15.94;70.64;100296.91;5049219;28;20048;-79
2021/07/29 06:43:04;;;;;;;6.73;2.47;;;;;;;16.88;65.69;100271.41;5032760;28;20108;-79
2021/07/29 06:45:30;;;;;;;7.47;2.20;;;;;;;17.46;65.10;100291.97;5031544;28;20501;-78
2021/07/29 06:47:55;;;;;;;11.67;2.40;;;;;;;17.83;63.18;100297.53;5048691;28;20040;-78
2021/07/29 06:50:21;;;;;;;5.73;2.43;;;;;;;17.63;62.04;100281.47;5048476;28;20037;-78
2021/07/29 06:52:46;;;;;;;6.30;2.17;;;;;;;18.29;61.64;100286.28;5049212;28;20036;-79
2021/07/29 06:55:11;;;;;;;4.83;2.63;;;;;;;18.99;57.70;100287.75;5048928;28;20118;-79
2021/07/29 06:57:37;;;;;;;5.10;1.87;;;;;;;18.77;58.71;100290.13;5032444;28;20025;-79
2021/07/29 07:00:03;;;;;;;4.50;1.80;;;;;;;17.77;61.13;100301.06;5049916;28;20043;-77
2021/07/29 07:02:28;;;;;;;3.75;2.25;;;;;;;17.27;61.89;100296.47;5048924;28;20033;-79
2021/07/29 07:04:53;;;;;;;8.73;2.47;;;;;;;17.41;63.16;100297.22;5050179;28;20029;-79
2021/07/29 07:07:19;;;;;;;3.07;1.63;;;;;;;17.31;61.41;100297.69;5048525;28;20041;-79
2021/07/29 07:09:45;;;;;;;6.03;1.53;;;;;;;16.75;63.87;100307.28;5048739;28;20041;-78
2021/07/29 07:12:10;;;;;;;2.42;1.60;;;;;;;16.71;64.05;100302.53;5048378;28;20036;-78
2021/07/29 07:14:36;;;;;;;3.55;1.63;;;;;;;17.09;62.69;100318.75;5049670;28;20041;-78
2021/07/29 07:17:06;;;;;;;5.00;1.67;;;;;;;17.29;60.24;100291.69;5048100;28;20040;-78
2021/07/29 07:19:33;;;;;;;8.80;2.28;;;;;;;17.82;60.39;100304.81;5030586;28;20128;-77
2021/07/29 07:21:58;;;;;;;6.80;1.63;;;;;;;18.03;59.32;100311.69;5048285;28;20108;-78
2021/07/29 07:24:24;;;;;;;5.70;1.80;;;;;;;18.08;57.58;100298.34;5047847;28;20178;-78
2021/07/29 07:26:49;;;;;;;7.17;1.70;;;;;;;18.29;58.93;100294.38;5047841;28;20495;-77
2021/07/29 07:29:14;;;;;;;4.60;1.63;;;;;;;18.39;58.90;100306.56;5048921;28;20058;-77
2021/07/29 07:31:40;;;;;;;4.60;1.43;;;;;;;19.17;57.95;100300.41;5047807;28;20033;-77
2021/07/29 07:34:05;;;;;;;4.97;2.00;;;;;;;19.16;55.02;100296.06;5047481;28;20033;-77
2021/07/29 07:36:30;;;;;;;3.87;2.17;;;;;;;19.06;56.71;100296.63;5048703;28;20028;-77
2021/07/29 07:38:56;;;;;;;3.07;1.87;;;;;;;18.80;57.24;100295.09;5047572;28;20123;-77
2021/07/29 07:41:22;;;;;;;3.87;2.10;;;;;;;18.62;57.89;100292.38;5048022;28;20068;-77
2021/07/29 07:43:48;;;;;;;5.57;2.40;;;;;;;19.38;55.69;100308.00;5048660;28;20024;-77
2021/07/29 07:46:13;;;;;;;7.60;2.13;;;;;;;18.83;56.30;100297.34;5030444;28;20179;-76
2021/07/29 07:48:39;;;;;;;3.67;1.50;;;;;;;18.35;58.05;100298.91;5047864;28;20464;-76
2021/07/29 07:51:04;;;;;;;5.77;1.60;;;;;;;17.71;58.25;100290.13;5047725;28;20131;-75
2021/07/29 07:53:30;;;;;;;6.70;2.25;;;;;;;17.91;58.58;100297.25;5031278;28;20033;-77
2021/07/29 07:55:56;;;;;;;2.60;1.63;;;;;;;18.03;59.58;100298.19;5047054;28;20041;-77
2021/07/29 07:58:22;;;;;;;3.13;1.50;;;;;;;18.00;58.14;100306.72;5047613;28;20068;-77
2021/07/29 08:00:48;;;;;;;6.37;2.37;;;;;;;18.11;57.83;100292.50;5048349;28;20105;-77
2021/07/29 08:03:14;;;;;;;4.05;1.60;;;;;;;17.54;58.42;100290.91;5031059;28;20024;-77
2021/07/29 08:05:40;;;;;;;2.25;1.50;;;;;;;17.36;59.16;100272.75;5047293;28;20378;-77
2021/07/29 08:08:08;;;;;;;2.40;1.65;;;;;;;17.80;59.10;100290.69;5047529;28;20025;-78
2021/07/29 08:10:38;;;;;;;3.60;1.85;;;;;;;17.28;59.56;100288.16;5048330;28;20060;-77
2021/07/29 08:13:05;;;;;;;5.85;1.55;;;;;;;17.50;58.74;100293.19;5031205;28;20477;-77
2021/07/29 08:15:30;;;;;;;7.38;1.92;;;;;;;17.48;57.97;100292.59;5048499;28;20094;-77
2021/07/29 08:17:56;;;;;;;4.00;1.30;;;;;;;17.99;58.41;100304.25;5047470;28;20079;-78
2021/07/29 08:20:24;;;;;;;7.13;1.50;;;;;;;17.77;57.91;100303.78;5047383;28;20348;-77
2021/07/29 08:22:51;;;;;;;2.67;1.83;;;;;;;18.10;57.52;100290.84;5047628;28;20116;-77
2021/07/29 08:25:18;;;;;;;;;;;;;;;17.92;56.65;100302.44;5030255;28;20037;-78
2021/07/29 08:27:44;;;;;;;7.13;2.05;;;;;;;18.35;55.47;100296.22;5046890;28;20425;-78
2021/07/29 08:30:09;;;;;;;6.03;1.70;;;;;;;19.11;54.13;100302.16;5029811;28;20025;-78
2021/07/29 08:32:35;;;;;;;2.00;1.30;;;;;;;19.50;53.49;100275.56;5050535;28;20040;-81
2021/07/29 08:35:01;;;;;;;4.07;1.40;;;;;;;19.21;53.61;100293.47;5051082;28;20040;-79
2021/07/29 08:37:26;;;;;;;3.23;1.67;;;;;;;19.69;52.28;100308.81;5051445;28;20664;-79
2021/07/29 08:39:53;;;;;;;2.87;1.40;;;;;;;19.53;53.11;100294.03;5034450;28;20128;-79
2021/07/29 08:42:19;;;;;;;8.32;1.92;;;;;;;19.35;53.33;100294.94;5033707;28;20078;-78
2021/07/29 08:44:44;;;;;;;4.87;1.57;;;;;;;19.28;52.82;100298.78;5051085;28;20567;-79
2021/07/29 08:47:12;;;;;;;3.23;1.50;;;;;;;19.96;52.97;100308.34;5033726;28;20047;-79
2021/07/29 08:49:40;;;;;;;5.22;1.73;;;;;;;20.98;50.66;100310.59;5053183;28;20377;-78
2021/07/29 08:52:05;;;;;;;2.35;1.00;;;;;;;20.54;51.11;100293.94;5050231;28;20449;-77
2021/07/29 08:54:31;;;;;;;3.50;1.27;;;;;;;20.11;50.33;100292.47;5034361;28;20036;-79
2021/07/29 08:56:58;;;;;;;3.67;1.23;;;;;;;20.59;49.50;100304.91;5033592;28;20037;-78
2021/07/29 08:59:23;;;;;;;5.28;1.30;;;;;;;19.79;51.34;100300.94;5033083;28;20037;-76
2021/07/29 09:01:52;;;;;;;1.83;1.00;;;;;;;19.68;52.10;100298.19;5050446;28;20522;-78
2021/07/29 09:04:18;;;;;;;6.07;1.73;;;;;;;20.61;51.72;100308.22;5033446;28;20032;-78
2021/07/29 09:06:59;;;;;;;5.88;1.60;;;;;;;20.73;49.77;100301.94;5051234;28;20083;-78
2021/07/29 09:09:42;;;;;;;5.35;2.50;;;;;;;21.71;47.82;100298.06;5050316;28;20036;-78
2021/07/29 09:12:16;;;;;;;4.32;1.17;;;;;;;21.38;48.80;100303.44;5051454;28;20104;-77
2021/07/29 09:14:41;;;;;;;4.15;1.00;;;;;;;21.38;48.83;100289.88;5049776;28;20036;-78
2021/07/29 09:17:09;;;;;;;5.40;1.37;;;;;;;20.09;48.74;100300.00;5049964;28;20065;-77
2021/07/29 09:19:46;;;;;;;3.75;1.10;;;;;;;19.69;49.21;100299.84;5049970;28;20047;-79
2021/07/29 09:22:16;;;;;;;8.70;1.58;;;;;;;20.11;47.53;100284.34;5051281;28;20072;-78
2021/07/29 09:25:05;;;;;;;2.67;1.02;;;;;;;20.23;48.00;100287.84;5050643;28;20032;-78
2021/07/29 09:27:37;;;;;;;3.90;1.00;;;;;;;19.97;46.31;100296.44;5049477;28;20043;-78
2021/07/29 09:30:25;;;;;;;14.50;2.95;;;;;;;20.29;46.17;100285.25;5049926;28;20748;-78
2021/07/29 09:33:03;;;;;;;1.83;1.20;;;;;;;20.74;45.62;100271.03;5049749;28;20496;-74
2021/07/29 09:35:28;;;;;;;2.85;1.08;;;;;;;21.04;43.53;100281.63;5049693;28;20041;-74
2021/07/29 09:37:54;;;;;;;5.20;1.27;;;;;;;20.48;46.38;100272.38;5049499;28;20029;-74
2021/07/29 09:40:19;;;;;;;9.23;2.97;;;;;;;19.87;49.11;100283.50;5033016;28;20041;-74
2021/07/29 09:43:06;;;;;;;4.63;1.50;;;;;;;19.19;47.95;100288.28;5048899;28;20116;-75
2021/07/29 09:45:32;;;;;;;6.35;1.30;;;;;;;20.14;47.82;100285.75;5050140;28;20033;-74
2021/07/29 09:47:58;;;;;;;7.75;1.27;;;;;;;20.22;45.52;100290.78;5049128;28;20120;-74
2021/07/29 09:50:24;;;;;;;3.42;1.08;;;;;;;20.92;44.65;100273.56;5032821;28;20029;-74
2021/07/29 09:52:49;;;;;;;4.53;1.85;;;;;;;20.48;45.90;100296.78;5049337;28;20035;-74
2021/07/29 09:55:15;;;;;;;4.10;1.80;;;;;;;20.66;43.00;100288.50;5049379;28;20086;-75
2021/07/29 09:57:41;;;;;;;3.40;1.30;;;;;;;20.79;43.29;100290.94;5050064;28;20116;-74
2021/07/29 10:00:07;;;;;;;3.87;1.57;;;;;;;21.37;43.80;100291.72;5049192;28;20467;-74
2021/07/29 10:02:38;;;;;;;8.82;1.42;;;;;;;21.96;43.30;100290.53;5050155;28;20040;-74
2021/07/29 10:05:05;;;;;;;2.50;1.10;;;;;;;21.48;43.12;100299.03;5049293;28;20450;-74
2021/07/29 10:07:35;;;;;;;4.05;1.10;;;;;;;20.15;45.82;100301.75;5049830;28;20033;-75
2021/07/29 10:10:03;;;;;;;3.45;1.38;;;;;;;20.36;44.89;100297.59;5049191;28;20075;-75
2021/07/29 10:12:30;;;;;;;3.15;1.13;;;;;;;20.18;46.77;100304.00;5048901;28;20538;-74
2021/07/29 10:14:57;;;;;;;5.32;1.33;;;;;;;19.63;45.98;100293.47;5048862;28;20489;-74
2021/07/29 10:17:35;;;;;;;4.78;1.73;;;;;;;19.96;47.06;100397.78;5048552;28;20526;-75
2021/07/29 10:20:13;;;;;;;4.53;1.02;;;;;;;21.01;44.86;100344.56;5049841;28;20094;-74
2021/07/29 10:22:39;;;;;;;4.03;2.10;;;;;;;20.19;45.64;100332.75;5048610;28;20028;-74
2021/07/29 10:25:05;;;;;;;5.63;1.38;;;;;;;20.05;45.66;100312.38;5048807;28;20442;-74
2021/07/29 10:27:30;;;;;;;7.15;1.67;;;;;;;19.77;47.03;100308.47;5048195;28;20123;-74
2021/07/29 10:30:18;;;;;;;4.60;1.60;;;;;;;20.30;46.39;100314.84;5048792;28;20048;-74
2021/07/29 10:32:50;;;;;;;4.32;1.08;;;;;;;20.40;45.76;100319.66;5049421;28;20102;-74
2021/07/29 10:35:30;;;;;;;5.60;1.25;;;;;;;20.70;43.81;100313.25;5048618;28;20040;-75
2021/07/29 10:37:58;;;;;;;4.30;1.20;;;;;;;20.39;43.95;100318.00;5049270;28;20033;-75
2021/07/29 10:40:40;;;;;;;3.03;1.45;;;;;;;20.44;44.10;100316.25;5048691;28;20086;-75
2021/07/29 10:43:24;;;;;;;5.53;1.10;;;;;;;20.03;45.94;100317.19;5030995;28;20032;-74
2021/07/29 10:45:55;;;;;;;8.85;1.98;;;;;;;19.43;45.56;100298.34;5047653;28;20040;-75
2021/07/29 10:48:38;;;;;;;4.22;1.17;;;;;;;19.69;46.25;100314.22;5031848;28;20144;-74
2021/07/29 10:51:14;;;;;;;4.75;1.70;;;;;;;19.47;47.28;100318.50;5049513;28;20039;-74
2021/07/29 10:53:46;;;;;;;3.13;1.13;;;;;;;20.72;44.85;100300.28;5047967;28;20061;-74
2021/07/29 10:56:21;;;;;;;5.40;1.35;;;;;;;20.07;44.31;100315.66;5031292;28;20025;-74
2021/07/29 10:58:48;;;;;;;5.07;1.10;;;;;;;21.73;41.93;100300.53;5049193;28;20037;-74
2021/07/29 11:01:15;;;;;;;2.85;1.10;;;;;;;22.08;40.62;100291.28;5048258;28;20098;-74
2021/07/29 11:03:49;;;;;;;3.17;0.93;;;;;;;21.87;40.76;100301.03;5048189;28;20049;-74
2021/07/29 11:06:25;;;;;;;12.23;1.42;;;;;;;20.31;42.98;100299.41;5048805;28;20051;-74
2021/07/29 11:08:53;;;;;;;;;;;;;;;20.35;42.78;100300.56;5048675;28;20685;-74
2021/07/29 11:11:19;;;;;;;2.55;0.95;;;;;;;20.13;44.87;100289.50;5047994;28;20372;-74
2021/07/29 11:13:50;;;;;;;10.07;1.23;;;;;;;19.53;44.98;100276.97;5048900;28;20017;-74
2021/07/29 11:16:16;;;;;;;6.53;1.13;;;;;;;20.43;42.74;100281.22;5047455;28;20033;-75
2021/07/29 11:18:41;;;;;;;;;;;;;;;20.70;42.79;100296.97;5048434;28;20036;-74
2021/07/29 11:21:13;;;;;;;;;;;;;;;20.73;42.59;100288.38;5047758;28;20277;-74
2021/07/29 11:23:39;;;;;;;4.20;1.40;;;;;;;20.67;43.05;100282.00;5048818;28;19921;-74
2021/07/29 11:26:05;;;;;;;5.53;1.13;;;;;;;21.13;43.46;100276.66;5047226;28;20032;-75
2021/07/29 11:28:30;;;;;;;;;;;;;;;21.18;42.81;100301.16;5049301;28;20716;-74